createdAt,value
2022-08-08T00:00:53.015Z,9.40
2022-08-08T00:02:31.291Z,9.73
2022-08-08T00:05:02.056Z,9.73
2022-08-08T00:07:46.801Z,9.77
2022-08-08T00:10:28.483Z,9.90
2022-08-08T00:13:10.319Z,9.53
2022-08-08T00:15:56.831Z,9.30
2022-08-08T00:18:32.869Z,9.53
2022-08-08T00:21:05.239Z,9.57
2022-08-08T00:23:43.306Z,9.77
2022-08-08T00:26:29.096Z,9.00
2022-08-08T00:29:08.169Z,9.43
2022-08-08T00:32:20.613Z,9.63
2022-08-08T00:35:04.630Z,8.87
2022-08-08T00:37:47.716Z,9.13
2022-08-08T00:41:14.345Z,10.03
2022-08-08T00:44:05.720Z,8.97
2022-08-08T00:47:14.174Z,9.43
2022-08-08T00:50:48.249Z,9.03
2022-08-08T00:53:43.566Z,9.43
2022-08-08T00:57:04.236Z,9.53
2022-08-08T01:00:05.054Z,9.77
2022-08-08T01:04:02.320Z,9.40
2022-08-08T01:06:57.331Z,8.70
2022-08-08T01:10:06.027Z,9.43
2022-08-08T01:13:16.278Z,9.03
2022-08-08T01:16:04.164Z,8.30
2022-08-08T01:19:52.121Z,9.27
2022-08-08T01:22:41.810Z,9.60
2022-08-08T01:25:48.065Z,9.13
2022-08-08T01:28:47.221Z,9.43
2022-08-08T01:32:15.208Z,10.43
2022-08-08T01:35:11.811Z,10.60
2022-08-08T01:38:08.872Z,10.87
2022-08-08T01:40:44.679Z,10.67
2022-08-08T01:43:34.851Z,10.53
2022-08-08T01:46:24.915Z,10.40
2022-08-08T01:49:06.218Z,10.73
2022-08-08T01:52:05.119Z,10.60
2022-08-08T01:55:26.665Z,10.53
2022-08-08T01:58:12.164Z,10.77
2022-08-08T02:00:50.113Z,10.40
2022-08-08T02:03:55.537Z,10.13
2022-08-08T02:06:36.930Z,10.43
2022-08-08T02:10:02.106Z,10.43
2022-08-08T02:12:19.729Z,10.70
2022-08-08T02:14:58.681Z,10.53
2022-08-08T02:17:36.580Z,10.20
2022-08-08T02:21:01.654Z,10.57
2022-08-08T02:23:23.511Z,10.17
2022-08-08T02:26:10.179Z,10.23
2022-08-08T02:28:52.499Z,10.70
2022-08-08T02:31:59.469Z,10.67
2022-08-08T02:35:06.372Z,10.47
2022-08-08T02:37:51.856Z,9.80
2022-08-08T02:40:38.702Z,10.30
2022-08-08T02:44:36.885Z,10.83
2022-08-08T02:46:50.520Z,10.40
2022-08-08T02:49:51.382Z,10.03
2022-08-08T02:53:03.723Z,10.03
2022-08-08T02:56:20.072Z,10.90
2022-08-08T02:59:36.992Z,10.20
2022-08-08T03:02:50.847Z,10.00
2022-08-08T03:06:03.334Z,10.40
2022-08-08T03:09:04.936Z,9.67
2022-08-08T03:12:08.247Z,9.73
2022-08-08T03:15:57.288Z,10.40
2022-08-08T03:18:04.539Z,9.70
2022-08-08T03:20:51.198Z,8.43
2022-08-08T03:23:22.220Z,8.17
2022-08-08T03:25:52.256Z,7.90
2022-08-08T03:28:34.032Z,8.37
2022-08-08T03:31:25.540Z,8.77
2022-08-08T03:33:55.787Z,8.40
2022-08-08T03:36:30.336Z,8.17
2022-08-08T03:39:14.376Z,8.80
2022-08-08T03:42:12.420Z,8.57
2022-08-08T03:44:34.993Z,8.03
2022-08-08T03:47:13.934Z,8.07
2022-08-08T03:50:01.221Z,8.23
2022-08-08T03:52:33.738Z,8.90
2022-08-08T03:55:56.660Z,8.77
2022-08-08T03:58:30.934Z,8.97
2022-08-08T04:01:01.638Z,9.90
2022-08-08T04:03:58.019Z,9.30
2022-08-08T04:06:24.613Z,10.60
2022-08-08T04:08:58.310Z,11.60
2022-08-08T04:11:57.762Z,10.43
2022-08-08T04:14:33.839Z,10.33
2022-08-08T04:17:04.524Z,10.60
2022-08-08T04:19:36.618Z,11.00
2022-08-08T04:22:05.294Z,11.20
2022-08-08T04:24:35.247Z,12.13
2022-08-08T04:27:07.451Z,11.67
2022-08-08T04:29:39.056Z,10.43
2022-08-08T04:32:30.686Z,11.53
2022-08-08T04:35:02.052Z,10.63
2022-08-08T04:37:31.536Z,10.43
2022-08-08T04:40:06.069Z,11.17
2022-08-08T04:42:38.107Z,10.43
2022-08-08T04:45:25.421Z,9.73
2022-08-08T04:47:53.920Z,9.77
2022-08-08T04:50:24.816Z,9.83
2022-08-08T04:53:00.527Z,8.93
2022-08-08T04:55:47.840Z,10.00
2022-08-08T04:58:18.946Z,8.83
2022-08-08T05:00:48.614Z,8.90
2022-08-08T05:03:18.954Z,9.02
2022-08-08T05:06:12.512Z,8.65
2022-08-08T05:08:51.786Z,9.05
2022-08-08T05:11:22.789Z,8.23
2022-08-08T05:13:55.283Z,9.00
2022-08-08T05:16:48.545Z,9.10
2022-08-08T05:20:10.531Z,8.65
2022-08-08T05:22:08.339Z,8.75
2022-08-08T05:24:37.325Z,8.57
2022-08-08T05:27:06.190Z,8.52
2022-08-08T05:29:36.720Z,8.05
2022-08-08T05:32:07.631Z,7.95
2022-08-08T05:34:37.865Z,7.65
2022-08-08T05:37:16.015Z,7.85
2022-08-08T05:39:52.723Z,8.07
2022-08-08T05:42:25.913Z,7.83
2022-08-08T05:45:00.738Z,8.37
2022-08-08T05:47:52.743Z,7.53
2022-08-08T05:50:29.965Z,8.10
2022-08-08T05:53:53.752Z,7.10
2022-08-08T05:56:10.544Z,8.33
2022-08-08T05:58:54.117Z,8.47
2022-08-08T06:01:57.396Z,8.30
2022-08-08T06:04:24.449Z,8.40
2022-08-08T06:06:56.477Z,8.40
2022-08-08T06:09:59.881Z,8.03
2022-08-08T06:12:29.711Z,8.33
2022-08-08T06:15:01.062Z,7.93
2022-08-08T06:18:18.363Z,8.47
2022-08-08T06:20:22.954Z,8.57
2022-08-08T06:22:54.208Z,11.60
2022-08-08T06:26:34.921Z,16.00
2022-08-08T06:28:16.331Z,8.20
2022-08-08T06:30:53.540Z,6.77
2022-08-08T06:33:37.371Z,7.53
2022-08-08T06:36:33.010Z,8.13
2022-08-08T06:39:06.846Z,8.30
2022-08-08T06:41:40.148Z,9.07
2022-08-08T06:44:12.515Z,8.80
2022-08-08T06:46:52.304Z,8.57
2022-08-08T06:49:55.174Z,8.10
2022-08-08T06:52:12.276Z,8.30
2022-08-08T06:54:48.883Z,9.03
2022-08-08T06:57:17.283Z,8.60
2022-08-08T07:00:11.511Z,8.17
2022-08-08T07:02:37.380Z,8.20
2022-08-08T07:05:20.431Z,8.03
2022-08-08T07:08:04.666Z,7.80
2022-08-08T07:10:37.853Z,7.43
2022-08-08T07:13:11.349Z,7.53
2022-08-08T07:16:05.678Z,6.77
2022-08-08T07:18:57.510Z,7.07
2022-08-08T07:21:31.337Z,7.07
2022-08-08T07:24:04.587Z,7.07
2022-08-08T07:26:35.662Z,7.57
2022-08-08T07:29:08.179Z,7.90
2022-08-08T07:31:41.665Z,5.87
2022-08-08T07:34:26.662Z,5.13
2022-08-08T07:37:12.163Z,5.73
2022-08-08T07:39:55.874Z,5.33
2022-08-08T07:42:33.003Z,5.90
2022-08-08T07:45:02.597Z,5.97
2022-08-08T07:47:39.053Z,5.03
2022-08-08T07:50:09.802Z,5.00
2022-08-08T07:52:43.447Z,6.47
2022-08-08T07:55:19.158Z,5.93
2022-08-08T07:57:56.032Z,5.93
2022-08-08T08:00:27.884Z,6.17
2022-08-08T08:03:03.420Z,5.93
2022-08-08T08:05:37.702Z,5.33
2022-08-08T08:08:17.099Z,5.13
2022-08-08T08:10:51.154Z,5.30
2022-08-08T08:13:42.482Z,4.70
2022-08-08T08:16:20.340Z,4.57
2022-08-08T08:18:56.079Z,4.50
2022-08-08T08:21:44.377Z,4.80
2022-08-08T08:24:18.991Z,4.80
2022-08-08T08:26:54.639Z,4.72
2022-08-08T08:29:24.166Z,4.00
2022-08-08T08:31:57.933Z,4.50
2022-08-08T08:34:32.211Z,3.70
2022-08-08T08:37:03.358Z,4.00
2022-08-08T08:39:59.901Z,4.20
2022-08-08T08:42:35.086Z,4.20
2022-08-08T08:45:21.203Z,4.22
2022-08-08T08:47:53.203Z,4.00
2022-08-08T08:50:32.012Z,3.97
2022-08-08T08:53:27.608Z,3.67
2022-08-08T08:55:55.750Z,4.10
2022-08-08T08:58:33.451Z,3.70
2022-08-08T09:01:10.230Z,4.03
2022-08-08T09:03:47.040Z,3.72
2022-08-08T09:06:28.540Z,3.95
2022-08-08T09:09:18.825Z,3.75
2022-08-08T09:12:07.797Z,4.00
2022-08-08T09:14:42.535Z,3.22
2022-08-08T09:17:17.909Z,3.35
2022-08-08T09:22:00.315Z,3.50
2022-08-08T09:22:41.135Z,3.20
2022-08-08T09:25:10.425Z,3.35
2022-08-08T09:27:55.677Z,3.17
2022-08-08T09:30:27.957Z,3.20
2022-08-08T09:33:12.739Z,3.40
2022-08-08T09:35:49.863Z,2.97
2022-08-08T09:38:32.772Z,3.25
2022-08-08T09:41:07.610Z,3.30
2022-08-08T09:44:05.788Z,3.33
2022-08-08T09:46:45.167Z,3.40
2022-08-08T09:49:42.089Z,3.42
2022-08-08T09:52:56.388Z,3.75
2022-08-08T09:55:06.437Z,3.03
2022-08-08T09:57:46.036Z,3.15
2022-08-08T10:00:50.128Z,3.90
2022-08-08T10:03:07.330Z,3.10
2022-08-08T10:05:37.944Z,3.15
2022-08-08T10:08:09.793Z,3.38
2022-08-08T10:10:41.445Z,2.83
2022-08-08T10:13:18.455Z,3.38
2022-08-08T10:16:00.352Z,2.70
2022-08-08T10:18:33.621Z,3.17
2022-08-08T10:21:23.285Z,2.97
2022-08-08T10:23:57.847Z,2.80
2022-08-08T10:26:57.393Z,3.03
2022-08-08T10:29:24.943Z,2.80
2022-08-08T10:32:16.855Z,2.30
2022-08-08T10:34:57.126Z,2.53
2022-08-08T10:37:30.389Z,2.88
2022-08-08T10:40:00.107Z,3.00
2022-08-08T10:42:37.591Z,2.85
2022-08-08T10:45:09.214Z,3.15
2022-08-08T10:47:43.626Z,3.00
2022-08-08T10:50:17.006Z,2.55
2022-08-08T10:52:45.769Z,2.85
2022-08-08T10:55:39.697Z,3.22
2022-08-08T10:58:05.679Z,2.88
2022-08-08T11:00:48.697Z,2.80
2022-08-08T11:03:36.759Z,2.60
2022-08-08T11:06:14.221Z,2.60
2022-08-08T11:08:53.263Z,2.95
2022-08-08T11:11:31.981Z,2.63
2022-08-08T11:14:16.052Z,2.95
2022-08-08T11:16:47.383Z,2.53
2022-08-08T11:19:19.509Z,2.70
2022-08-08T11:21:55.642Z,2.65
2022-08-08T11:24:29.164Z,2.75
2022-08-08T11:27:10.680Z,2.55
2022-08-08T11:29:58.139Z,2.83
2022-08-08T11:32:41.129Z,2.90
2022-08-08T11:35:24.958Z,3.13
2022-08-08T11:38:35.411Z,3.13
2022-08-08T11:40:52.367Z,2.97
2022-08-08T11:43:25.995Z,3.13
2022-08-08T11:46:13.800Z,2.90
2022-08-08T11:48:47.973Z,3.22
2022-08-08T11:51:38.633Z,3.40
2022-08-08T11:54:26.690Z,3.47
2022-08-08T11:56:58.041Z,3.47
2022-08-08T11:59:57.830Z,3.00
2022-08-08T12:02:32.644Z,2.80
2022-08-08T12:05:02.777Z,3.20
2022-08-08T12:07:45.371Z,2.92
2022-08-08T12:10:17.788Z,2.70
2022-08-08T12:12:48.694Z,3.13
2022-08-08T12:15:27.971Z,2.88
2022-08-08T12:17:56.473Z,3.35
2022-08-08T12:20:25.615Z,2.80
2022-08-08T12:22:57.116Z,2.78
2022-08-08T12:25:30.129Z,3.05
2022-08-08T12:28:15.820Z,3.10
2022-08-08T12:30:47.799Z,2.90
2022-08-08T12:33:20.793Z,3.03
2022-08-08T12:35:51.983Z,3.20
2022-08-08T12:38:31.335Z,3.08
2022-08-08T12:41:16.502Z,3.03
2022-08-08T12:43:59.523Z,3.10
2022-08-08T12:46:28.820Z,3.00
2022-08-08T12:49:22.351Z,2.80
2022-08-08T12:51:59.149Z,2.67
2022-08-08T12:54:36.332Z,3.20
2022-08-08T12:57:17.268Z,2.83
2022-08-08T13:00:05.168Z,2.72
2022-08-08T13:02:51.707Z,3.10
2022-08-08T13:05:26.617Z,3.00
2022-08-08T13:11:04.527Z,3.20
2022-08-08T13:13:37.524Z,3.10
2022-08-08T13:16:19.826Z,3.17
2022-08-08T13:18:56.956Z,2.88
2022-08-08T13:21:26.969Z,3.10
2022-08-08T13:24:18.668Z,2.90
2022-08-08T13:27:11.777Z,2.75
2022-08-08T13:29:50.683Z,2.72
2022-08-08T13:32:20.766Z,3.00
2022-08-08T13:34:53.081Z,2.90
2022-08-08T13:37:51.810Z,2.90
2022-08-08T13:40:18.137Z,2.90
2022-08-08T13:42:58.401Z,2.90
2022-08-08T13:45:27.155Z,3.17
2022-08-08T13:47:59.464Z,3.00
2022-08-08T13:50:39.528Z,3.05
2022-08-08T13:53:22.660Z,2.72
2022-08-08T13:55:58.949Z,2.85
2022-08-08T13:58:30.500Z,3.20
2022-08-08T14:00:59.102Z,2.45
2022-08-08T14:03:52.998Z,2.42
2022-08-08T14:06:32.436Z,2.55
2022-08-08T14:09:25.015Z,2.85
2022-08-08T14:11:51.331Z,2.60
2022-08-08T14:14:26.350Z,2.47
2022-08-08T14:17:11.737Z,3.03
2022-08-08T14:19:57.229Z,3.03
2022-08-08T14:22:38.274Z,3.10
2022-08-08T14:25:15.435Z,3.33
2022-08-08T14:27:59.715Z,3.20
2022-08-08T14:30:36.095Z,3.20
2022-08-08T14:33:12.744Z,3.20
2022-08-08T14:35:43.580Z,2.92
2022-08-08T14:38:33.291Z,3.10
2022-08-08T14:41:12.211Z,3.17
2022-08-08T14:44:10.353Z,3.78
2022-08-08T14:46:37.335Z,3.53
2022-08-08T14:49:20.603Z,2.97
2022-08-08T14:52:09.229Z,3.30
2022-08-08T14:54:49.183Z,3.22
2022-08-08T14:57:18.473Z,3.25
2022-08-08T14:59:50.803Z,3.22
2022-08-08T15:02:25.329Z,3.15
2022-08-08T15:04:54.097Z,2.42
2022-08-08T15:07:37.000Z,2.72
2022-08-08T15:10:12.587Z,2.60
2022-08-08T15:12:42.062Z,2.90
2022-08-08T15:15:11.591Z,2.90
2022-08-08T15:17:49.482Z,3.00
2022-08-08T15:20:19.394Z,3.10
2022-08-08T15:22:47.573Z,3.30
2022-08-08T15:25:17.576Z,2.85
2022-08-08T15:28:03.873Z,2.92
2022-08-08T15:30:45.940Z,3.33
2022-08-08T15:33:35.781Z,2.80
2022-08-08T15:36:06.959Z,2.90
2022-08-08T15:38:36.268Z,2.90
2022-08-08T15:41:09.013Z,2.63
2022-08-08T15:43:37.947Z,2.92
2022-08-08T15:46:06.448Z,2.88
2022-08-08T15:48:36.415Z,2.65
2022-08-08T15:51:07.202Z,2.50
2022-08-08T15:53:40.499Z,2.50
2022-08-08T15:56:20.103Z,2.55
2022-08-08T15:58:49.404Z,2.80
2022-08-08T16:04:17.791Z,3.30
2022-08-08T16:06:49.437Z,2.80
2022-08-08T16:13:03.010Z,2.95
2022-08-08T16:13:07.253Z,2.83
2022-08-08T16:14:54.454Z,3.17
2022-08-08T16:17:57.485Z,2.83
2022-08-08T16:20:13.630Z,3.00
2022-08-08T16:22:42.127Z,2.72
2022-08-08T16:25:17.404Z,3.10
2022-08-08T16:27:56.998Z,3.17
2022-08-08T16:30:36.354Z,2.88
2022-08-08T16:33:05.044Z,2.97
2022-08-08T16:35:35.905Z,3.17
2022-08-08T16:38:04.341Z,2.70
2022-08-08T16:40:32.558Z,3.08
2022-08-08T16:43:00.817Z,3.00
2022-08-08T16:46:43.260Z,2.75
2022-08-08T16:48:17.268Z,2.53
2022-08-08T16:50:47.908Z,2.65
2022-08-08T16:55:18.254Z,2.97
2022-08-08T16:56:04.800Z,4.15
2022-08-08T16:58:36.944Z,3.00
2022-08-08T17:01:09.195Z,3.50
2022-08-08T17:03:58.473Z,4.28
2022-08-08T17:06:36.320Z,3.40
2022-08-08T17:09:15.218Z,3.10
2022-08-08T17:11:48.485Z,2.80
2022-08-08T17:14:19.347Z,2.75
2022-08-08T17:16:51.728Z,2.88
2022-08-08T17:19:27.456Z,3.20
2022-08-08T17:22:01.130Z,4.80
2022-08-08T17:24:31.588Z,4.80
2022-08-08T17:27:01.165Z,5.72
2022-08-08T17:29:34.115Z,4.60
2022-08-08T17:32:07.726Z,4.97
2022-08-08T17:35:04.371Z,3.97
2022-08-08T17:37:27.584Z,4.65
2022-08-08T17:40:12.262Z,4.05
2022-08-08T17:42:47.095Z,3.97
2022-08-08T17:45:22.460Z,4.03
2022-08-08T17:47:52.219Z,3.85
2022-08-08T17:50:22.656Z,4.05
2022-08-08T17:52:52.589Z,4.05
2022-08-08T17:56:03.612Z,4.60
2022-08-08T17:58:09.318Z,3.97
2022-08-08T18:00:41.084Z,3.90
2022-08-08T18:03:13.550Z,3.33
2022-08-08T18:05:48.413Z,3.75
2022-08-08T18:08:24.521Z,3.20
2022-08-08T18:11:08.338Z,3.85
2022-08-08T18:13:42.255Z,3.40
2022-08-08T18:16:12.615Z,3.42
2022-08-08T18:18:42.933Z,3.03
2022-08-08T18:21:35.385Z,3.30
2022-08-08T18:24:03.750Z,3.70
2022-08-08T18:26:33.731Z,3.45
2022-08-08T18:29:02.962Z,3.40
2022-08-08T18:31:34.237Z,3.30
2022-08-08T18:34:24.971Z,3.63
2022-08-08T18:36:55.775Z,3.78
2022-08-08T18:39:28.156Z,3.80
2022-08-08T18:42:03.905Z,3.47
2022-08-08T18:44:36.010Z,4.03
2022-08-08T18:47:05.134Z,4.10
2022-08-08T18:49:40.879Z,3.90
2022-08-08T18:52:23.196Z,4.20
2022-08-08T18:55:01.052Z,4.30
2022-08-08T18:57:44.602Z,3.95
2022-08-08T19:00:19.735Z,4.20
2022-08-08T19:02:55.304Z,4.07
2022-08-08T19:05:32.069Z,4.53
2022-08-08T19:08:25.132Z,3.90
2022-08-08T19:10:59.685Z,4.10
2022-08-08T19:13:52.821Z,4.33
2022-08-08T19:16:20.123Z,4.37
2022-08-08T19:19:00.033Z,4.40
2022-08-08T19:21:33.352Z,4.70
2022-08-08T19:24:49.431Z,6.70
2022-08-08T19:27:08.934Z,5.35
2022-08-08T19:29:40.678Z,5.13
2022-08-08T19:32:13.125Z,5.33
2022-08-08T19:34:49.332Z,5.67
2022-08-08T19:37:42.219Z,5.27
2022-08-08T19:40:14.725Z,5.07
2022-08-08T19:42:46.387Z,5.50
2022-08-08T19:45:57.138Z,5.50
2022-08-08T19:48:04.599Z,5.40
2022-08-08T19:50:33.186Z,6.03
2022-08-08T19:53:01.460Z,6.23
2022-08-08T19:55:33.909Z,6.33
2022-08-08T19:58:04.014Z,6.27
2022-08-08T20:00:37.206Z,5.37
2022-08-08T20:03:15.082Z,6.23
2022-08-08T20:06:13.605Z,5.83
2022-08-08T20:08:48.029Z,5.60
2022-08-08T20:11:16.476Z,6.07
2022-08-08T20:14:32.835Z,5.47
2022-08-08T20:16:38.936Z,5.33
2022-08-08T20:19:09.302Z,5.30
2022-08-08T20:21:37.985Z,5.63
2022-08-08T20:24:07.760Z,5.97
2022-08-08T20:26:38.456Z,5.70
2022-08-08T20:29:11.790Z,5.17
2022-08-08T20:32:07.183Z,4.97
2022-08-08T20:34:31.921Z,5.43
2022-08-08T20:37:02.561Z,6.20
2022-08-08T20:39:38.919Z,5.77
2022-08-08T20:42:09.983Z,5.37
2022-08-08T20:44:39.517Z,5.77
2022-08-08T20:47:23.051Z,5.73
2022-08-08T20:49:54.350Z,5.87
2022-08-08T20:52:27.651Z,6.70
2022-08-08T20:54:55.909Z,6.17
2022-08-08T20:57:26.908Z,6.10
2022-08-08T20:59:57.792Z,5.37
2022-08-08T21:02:27.998Z,5.07
2022-08-08T21:05:01.227Z,4.87
2022-08-08T21:08:33.491Z,5.43
2022-08-08T21:10:20.829Z,4.93
2022-08-08T21:12:54.480Z,5.23
2022-08-08T21:16:06.346Z,5.13
2022-08-08T21:18:13.739Z,5.40
2022-08-08T21:20:42.399Z,6.10
2022-08-08T21:23:13.192Z,6.10
2022-08-08T21:25:48.998Z,6.33
2022-08-08T21:28:33.529Z,6.87
2022-08-08T21:31:23.027Z,6.37
2022-08-08T21:33:52.219Z,5.30
2022-08-08T21:36:28.889Z,5.63
2022-08-08T21:38:57.815Z,6.07
2022-08-08T21:41:38.702Z,6.77
2022-08-08T21:44:15.557Z,6.10
2022-08-08T21:48:05.190Z,5.90
2022-08-08T21:49:35.623Z,4.97
2022-08-08T21:54:33.971Z,5.20
2022-08-08T21:54:58.177Z,5.20
2022-08-08T21:57:42.727Z,5.70
2022-08-08T22:00:26.227Z,4.67
2022-08-08T22:02:56.137Z,5.50
2022-08-08T22:05:24.674Z,5.10
2022-08-08T22:08:00.081Z,5.50
2022-08-08T22:10:32.055Z,5.47
2022-08-08T22:13:17.867Z,5.50
2022-08-08T22:15:58.952Z,5.60
2022-08-08T22:18:31.591Z,5.77
2022-08-08T22:21:08.305Z,5.37
2022-08-08T22:23:40.956Z,5.07
2022-08-08T22:26:27.065Z,5.40
2022-08-08T22:29:03.841Z,4.70
2022-08-08T22:31:43.271Z,5.17
2022-08-08T22:34:15.490Z,5.47
2022-08-08T22:36:43.691Z,5.47
2022-08-08T22:39:19.467Z,5.27
2022-08-08T22:41:49.437Z,5.07
2022-08-08T22:44:17.773Z,5.57
2022-08-08T22:46:46.041Z,5.63
2022-08-08T22:49:19.973Z,5.63
2022-08-08T22:51:48.644Z,5.80
2022-08-08T22:54:32.154Z,5.53
2022-08-08T22:57:08.628Z,5.43
2022-08-08T22:59:58.971Z,5.70
2022-08-08T23:02:29.125Z,5.50
2022-08-08T23:05:02.056Z,5.73
2022-08-08T23:07:51.733Z,5.70
2022-08-08T23:10:25.412Z,5.20
2022-08-08T23:12:55.312Z,5.20
2022-08-08T23:16:41.851Z,5.30
2022-08-08T23:18:13.029Z,4.97
2022-08-08T23:20:44.135Z,5.00
2022-08-08T23:23:13.173Z,5.43
2022-08-08T23:25:48.046Z,4.77
2022-08-08T23:28:17.680Z,5.10
2022-08-08T23:30:46.939Z,5.50
2022-08-08T23:33:20.963Z,5.20
2022-08-08T23:36:07.939Z,5.00
2022-08-08T23:38:44.160Z,5.00
2022-08-08T23:41:22.986Z,5.10
2022-08-08T23:43:54.211Z,5.07
2022-08-08T23:49:07.963Z,4.80
2022-08-08T23:49:15.282Z,4.67
2022-08-08T23:52:06.573Z,4.43
2022-08-08T23:54:42.319Z,5.00
2022-08-08T23:57:27.577Z,4.80
